Hokitika (NZHK)

Aerodrome — Elev 146
New Zealand
S042.42.49.000 E170.59.07.001
Loading chart...

Current Weather

NZHK 211800Z 21008KT 20KM BKN100 09/03 Q0984 RMK ALT VATSIM USE ONLY

Published 51 minutes ago

Airport Activity

Loading chart...
Loading chart...

Positions

CallsignRadio Name / Freq / Voice Room / TypeFrequencyVoice RoomType
NZCH-K_CTR Christchurch Control
129.400
nzch-k_ctr
129.400nzch-k_ctr
UNICOM NZZC UNICOM
122.800
unicom_nzzc
122.800unicom_nzzc

Charts

Departure Charts

Departure